logo
Search for airport 
image banner adimage banner adimage banner ad
image banner ad

YMAV - Avalon

Located in Lara, Australia

ICAO - YMAV, IATA - AVV

Data provided by Airmate  

General information

Coordinates: S38°2'22" E144°28'10"
Elevation is 35 feet MSL.
 
View others Airports in Victoria

Operational data

Special qualification required
Current time UTC:
Current local time:
Weather
METAR: YMAV 282100Z AUTO 34002KT 9999 // NCD 02/01 Q1024 RF00.0/000.0
TAF: TAF YMAV 281722Z 2818/2918 02007KT CAVOK
View NOTAMs / SUP AIP / TFR affecting this airport [VIEW]
Communications frequencies: [VIEW]

Runways:

RWY identifierQFULength (ft)Width (ft)SurfaceLDA (ft)
18188°10000148ASP
3610000148ASP

Airport contact information

Address: Lara Australia

Satellite view of YMAV